Time;durP1;ratioP1;P1;durP2;ratioP2;P2;SDS_P1;SDS_P2;PMS_P1;PMS_P2;Temp;Humidity;BMP_temperature;BMP_pressure;BME280_temperature;BME280_humidity;BME280_pressure;Samples;Min_cycle;Max_cycle;Signal;HPM_P1;HPM_P2
2023/03/15 00:00:06;;;;;;;7.37;1.87;;;;;;;1.54;100.00;100763.59;5009929;28;20766;-69
2023/03/15 00:02:32;;;;;;;5.30;1.57;;;;;;;1.51;100.00;100762.56;5014006;28;20249;-68
2023/03/15 00:04:57;;;;;;;4.73;1.40;;;;;;;1.53;100.00;100769.41;5010355;28;20549;-69
2023/03/15 00:07:24;;;;;;;4.57;1.40;;;;;;;1.55;100.00;100775.41;5015324;28;20273;-69
2023/03/15 00:09:51;;;;;;;8.07;1.60;;;;;;;1.57;100.00;100778.00;5011590;28;20203;-69
2023/03/15 00:12:17;;;;;;;7.30;1.60;;;;;;;1.56;100.00;100772.09;5009688;28;20195;-71
2023/03/15 00:14:42;;;;;;;7.20;1.17;;;;;;;1.59;100.00;100778.94;5007527;28;20297;-70
2023/03/15 00:17:08;;;;;;;5.87;1.23;;;;;;;1.62;100.00;100784.16;5011625;28;20663;-70
2023/03/15 00:19:33;;;;;;;4.47;1.60;;;;;;;1.63;100.00;100796.00;5011984;28;20242;-70
2023/03/15 00:21:59;;;;;;;9.07;1.30;;;;;;;1.60;100.00;100794.16;5011482;28;20222;-70
2023/03/15 00:24:24;;;;;;;4.20;1.10;;;;;;;1.55;100.00;100798.09;5013582;28;20191;-70
2023/03/15 00:26:50;;;;;;;11.07;1.90;;;;;;;1.51;100.00;100788.63;5008774;28;20206;-70
2023/03/15 00:29:15;;;;;;;5.60;1.40;;;;;;;1.52;100.00;100799.59;5011684;28;20199;-68
2023/03/15 00:31:41;;;;;;;7.27;2.10;;;;;;;1.58;100.00;100800.81;5010548;28;20218;-69
2023/03/15 00:34:06;;;;;;;6.30;1.63;;;;;;;1.66;100.00;100802.06;5011764;28;20237;-70
2023/03/15 00:36:32;;;;;;;9.67;2.10;;;;;;;1.68;100.00;100812.25;5009096;28;20671;-70
2023/03/15 00:38:57;;;;;;;3.70;1.60;;;;;;;1.69;100.00;100809.81;5011613;28;20272;-70
2023/03/15 00:41:23;;;;;;;7.03;1.77;;;;;;;1.63;100.00;100827.16;5006446;28;20207;-70
2023/03/15 00:43:50;;;;;;;7.00;1.90;;;;;;;1.57;100.00;100829.34;5015721;28;20222;-71
2023/03/15 00:46:16;;;;;;;6.87;1.80;;;;;;;1.57;100.00;100826.81;5009002;28;20206;-70
2023/03/15 00:48:42;;;;;;;9.30;2.13;;;;;;;1.55;100.00;100824.97;5014693;28;20286;-68
2023/03/15 00:51:14;;;;;;;4.43;1.70;;;;;;;1.52;100.00;100829.88;5008919;28;20305;-71
2023/03/15 00:53:42;;;;;;;6.67;1.73;;;;;;;1.55;100.00;100841.00;5013512;28;20278;-68
2023/03/15 00:56:28;;;;;;;5.10;1.70;;;;;;;1.52;100.00;100838.28;5008343;28;20207;-68
2023/03/15 00:58:57;;;;;;;4.33;1.53;;;;;;;1.50;100.00;100844.91;5011946;28;20211;-69
2023/03/15 01:01:27;;;;;;;5.70;2.00;;;;;;;1.50;100.00;100844.03;5007275;28;20207;-69
2023/03/15 01:03:53;;;;;;;7.47;1.93;;;;;;;1.48;100.00;100846.50;5013794;28;20201;-71
2023/03/15 01:06:24;;;;;;;5.07;1.60;;;;;;;1.47;100.00;100844.75;5009572;28;20183;-68
2023/03/15 01:08:50;;;;;;;8.00;2.30;;;;;;;1.47;100.00;100836.31;5011959;28;20194;-70
2023/03/15 01:11:25;;;;;;;5.03;1.80;;;;;;;1.42;100.00;100840.25;5009056;28;20247;-67
2023/03/15 01:13:52;;;;;;;6.03;1.87;;;;;;;1.43;100.00;100845.38;5007528;28;20644;-68
2023/03/15 01:16:17;;;;;;;4.57;1.87;;;;;;;1.43;100.00;100854.59;5007483;28;20246;-72
2023/03/15 01:18:43;;;;;;;7.10;2.07;;;;;;;1.43;100.00;100864.69;5008230;28;20651;-71
2023/03/15 01:21:11;;;;;;;8.90;2.30;;;;;;;1.44;100.00;100868.94;5007670;28;20214;-69
2023/03/15 01:23:36;;;;;;;5.80;2.00;;;;;;;1.45;100.00;100866.50;5013693;28;20289;-70
2023/03/15 01:26:04;;;;;;;10.93;2.80;;;;;;;1.41;100.00;100869.63;5011072;28;20205;-69
2023/03/15 01:28:30;;;;;;;7.07;2.40;;;;;;;1.41;100.00;100861.19;5015680;28;20721;-69
2023/03/15 01:30:56;;;;;;;7.97;2.50;;;;;;;1.39;100.00;100866.16;5013560;28;20222;-69
2023/03/15 01:33:22;;;;;;;9.17;2.73;;;;;;;1.44;100.00;100868.94;5014178;28;20212;-69
2023/03/15 01:35:48;;;;;;;4.67;2.20;;;;;;;1.43;100.00;100870.59;5015560;28;20192;-70
2023/03/15 01:38:14;;;;;;;7.90;2.60;;;;;;;1.44;100.00;100869.81;5014054;28;20191;-69
2023/03/15 01:40:44;;;;;;;10.27;3.10;;;;;;;1.47;100.00;100876.69;5012605;28;20206;-69
2023/03/15 01:43:18;;;;;;;10.50;3.20;;;;;;;1.46;100.00;100878.31;5013682;28;20302;-68
2023/03/15 01:45:55;;;;;;;9.57;3.10;;;;;;;1.43;100.00;100883.22;5009702;28;20272;-69
2023/03/15 01:48:31;;;;;;;7.63;3.40;;;;;;;1.44;100.00;100882.44;5011421;28;20190;-69
2023/03/15 01:50:58;;;;;;;9.97;3.10;;;;;;;1.44;100.00;100887.47;5010565;28;20199;-69
2023/03/15 01:53:26;;;;;;;8.60;3.30;;;;;;;1.44;100.00;100884.06;5010397;28;20194;-69
2023/03/15 01:55:53;;;;;;;6.80;3.50;;;;;;;1.46;100.00;100890.09;5011265;28;20195;-69
2023/03/15 01:58:26;;;;;;;11.53;3.53;;;;;;;1.50;100.00;100891.97;5010607;28;20190;-69
2023/03/15 02:00:53;;;;;;;8.60;3.60;;;;;;;1.52;100.00;100895.47;5012969;28;20264;-71
2023/03/15 02:03:31;;;;;;;7.27;3.37;;;;;;;1.57;100.00;100894.06;5009000;28;20214;-70
2023/03/15 02:06:03;;;;;;;6.20;3.30;;;;;;;1.58;100.00;100891.63;5011738;28;20199;-70
2023/03/15 02:08:52;;;;;;;6.40;3.27;;;;;;;1.59;100.00;100902.56;5010888;28;20186;-70
2023/03/15 02:11:20;;;;;;;9.63;3.20;;;;;;;1.64;100.00;100904.56;5010255;28;20595;-71
2023/03/15 02:13:48;;;;;;;6.20;2.80;;;;;;;1.67;100.00;100902.22;5006719;28;20188;-69
2023/03/15 02:16:15;;;;;;;7.37;2.70;;;;;;;1.69;100.00;100893.06;5011298;28;20250;-69
2023/03/15 02:18:50;;;;;;;4.47;2.20;;;;;;;1.74;100.00;100909.31;5012594;28;20612;-68
2023/03/15 02:21:40;;;;;;;3.67;1.63;;;;;;;1.75;100.00;100895.06;5012331;28;20258;-69
2023/03/15 02:24:42;;;;;;;4.40;2.27;;;;;;;1.80;100.00;100903.75;5007534;28;20694;-70
2023/03/15 02:27:08;;;;;;;4.63;1.73;;;;;;;1.76;100.00;100907.78;5006258;28;20205;-68
2023/03/15 02:29:33;;;;;;;6.77;2.60;;;;;;;1.78;100.00;100908.72;5011204;28;20179;-70
2023/03/15 02:32:03;;;;;;;3.67;2.00;;;;;;;1.80;100.00;100916.38;5009203;28;20223;-69
2023/03/15 02:34:30;;;;;;;2.73;1.70;;;;;;;1.76;100.00;100912.81;5026348;28;20257;-68
2023/03/15 02:36:56;;;;;;;7.93;2.23;;;;;;;1.77;100.00;100924.66;5012796;28;20294;-69
2023/03/15 02:39:22;;;;;;;3.10;1.77;;;;;;;1.81;100.00;100926.56;5008831;28;20302;-69
2023/03/15 02:41:53;;;;;;;6.00;1.97;;;;;;;1.82;100.00;100929.94;5013949;28;20223;-69
2023/03/15 02:44:25;;;;;;;4.33;2.30;;;;;;;1.81;100.00;100928.19;5010892;28;20202;-69
2023/03/15 02:46:53;;;;;;;3.23;2.10;;;;;;;1.86;100.00;100942.81;5015106;28;20199;-69
2023/03/15 02:49:25;;;;;;;7.67;2.53;;;;;;;1.86;100.00;100937.78;5011912;28;20326;-69
2023/03/15 02:51:50;;;;;;;6.67;2.50;;;;;;;1.86;100.00;100932.72;5009033;28;20222;-69
2023/03/15 02:54:16;;;;;;;9.13;2.90;;;;;;;1.86;100.00;100945.34;5009707;28;20187;-69
2023/03/15 02:56:41;;;;;;;4.43;2.37;;;;;;;1.88;100.00;100956.38;5014967;28;20197;-70
2023/03/15 02:59:07;;;;;;;4.90;2.70;;;;;;;1.92;100.00;100957.44;5008595;28;20223;-70
2023/03/15 03:01:35;;;;;;;3.03;2.17;;;;;;;1.95;100.00;100958.47;5012391;28;20253;-70
2023/03/15 03:04:02;;;;;;;5.37;2.33;;;;;;;1.98;100.00;100958.63;5008576;28;20214;-70
2023/03/15 03:06:28;;;;;;;6.80;2.30;;;;;;;2.01;100.00;100963.84;5011096;28;20198;-69
2023/03/15 03:08:53;;;;;;;4.20;2.13;;;;;;;2.03;100.00;100972.38;5007884;28;20195;-68
2023/03/15 03:11:19;;;;;;;4.53;2.20;;;;;;;2.08;100.00;100983.59;5009318;28;20695;-69
2023/03/15 03:13:45;;;;;;;7.13;1.97;;;;;;;2.08;100.00;100983.59;5010213;28;20203;-70
2023/03/15 03:16:11;;;;;;;3.90;1.70;;;;;;;2.08;100.00;100987.78;5010353;28;20201;-70
2023/03/15 03:18:37;;;;;;;6.43;1.50;;;;;;;2.08;100.00;100993.72;5008348;28;20204;-69
2023/03/15 03:21:06;;;;;;;3.43;1.73;;;;;;;2.08;100.00;101001.28;5012611;28;20244;-69
2023/03/15 03:23:32;;;;;;;4.20;1.40;;;;;;;2.09;100.00;100995.44;5008962;28;20191;-70
2023/03/15 03:25:59;;;;;;;3.93;1.50;;;;;;;2.13;100.00;100999.00;5008861;28;20551;-69
2023/03/15 03:28:26;;;;;;;5.20;1.73;;;;;;;2.12;100.00;101000.63;5006853;28;20192;-69
2023/03/15 03:30:53;;;;;;;4.50;1.40;;;;;;;2.12;100.00;101008.22;5014211;28;20214;-70
2023/03/15 03:33:20;;;;;;;3.03;1.70;;;;;;;2.10;100.00;101009.78;5010543;28;20199;-69
2023/03/15 03:35:47;;;;;;;2.30;1.40;;;;;;;2.10;100.00;101021.53;5014690;28;20251;-70
2023/03/15 03:38:12;;;;;;;1.80;1.40;;;;;;;2.07;100.00;101027.28;5010250;28;20193;-69
2023/03/15 03:40:41;;;;;;;3.07;1.70;;;;;;;2.08;100.00;101033.22;5013536;28;20301;-70
2023/03/15 03:43:08;;;;;;;3.27;1.27;;;;;;;2.11;100.00;101029.19;5008400;28;20290;-69
2023/03/15 03:45:34;;;;;;;2.20;1.60;;;;;;;2.14;100.00;101036.97;5013917;28;20195;-70
2023/03/15 03:48:00;;;;;;;3.00;1.30;;;;;;;2.14;100.00;101031.91;5006416;28;20687;-69
2023/03/15 03:50:27;;;;;;;4.30;1.60;;;;;;;2.13;100.00;101031.81;5005998;28;20214;-69
2023/03/15 03:52:53;;;;;;;4.63;1.97;;;;;;;2.10;100.00;101034.16;5010927;28;20663;-70
2023/03/15 03:55:24;;;;;;;6.80;1.70;;;;;;;2.08;100.00;101049.25;5008115;28;20201;-70
2023/03/15 03:57:51;;;;;;;3.63;1.67;;;;;;;2.11;100.00;101056.97;4994507;28;20611;-70
2023/03/15 04:00:33;;;;;;;8.03;2.30;;;;;;;2.16;100.00;101063.16;5007764;28;20258;-70
2023/03/15 04:03:00;;;;;;;4.77;2.10;;;;;;;2.19;100.00;101068.38;5010118;28;20569;-69
2023/03/15 04:05:27;;;;;;;6.27;2.10;;;;;;;2.22;100.00;101077.78;5003662;28;21811;-69
2023/03/15 04:07:53;;;;;;;3.33;1.90;;;;;;;2.22;100.00;101078.66;5008538;28;20191;-71
2023/03/15 04:10:25;;;;;;;5.13;2.03;;;;;;;2.23;100.00;101080.41;5007937;28;20238;-70
2023/03/15 04:12:57;;;;;;;3.90;2.30;;;;;;;2.24;100.00;101092.25;5008940;28;20898;-70
2023/03/15 04:15:23;;;;;;;4.10;2.47;;;;;;;2.16;100.00;101090.94;5009415;28;20195;-70
2023/03/15 04:18:04;;;;;;;4.13;2.47;;;;;;;2.05;100.00;101092.00;5014719;28;20198;-70
2023/03/15 04:20:33;;;;;;;5.90;2.70;;;;;;;2.01;100.00;101101.81;5024582;28;20305;-70
2023/03/15 04:23:00;;;;;;;4.57;2.50;;;;;;;1.98;100.00;101109.22;5013556;28;20790;-70
2023/03/15 04:25:36;;;;;;;4.90;3.00;;;;;;;1.96;100.00;101111.66;5007471;28;20191;-69
2023/03/15 04:28:29;;;;;;;5.10;2.80;;;;;;;1.94;100.00;101127.50;5010774;28;20669;-70
2023/03/15 04:31:25;;;;;;;4.17;3.00;;;;;;;1.92;100.00;101126.56;5010370;28;20226;-70
2023/03/15 04:34:10;;;;;;;6.30;4.00;;;;;;;1.88;100.00;101129.69;5009844;28;20233;-69
2023/03/15 04:36:53;;;;;;;10.63;3.60;;;;;;;1.85;100.00;101132.91;5004694;28;20257;-70
2023/03/15 04:39:38;;;;;;;5.30;2.77;;;;;;;1.82;100.00;101135.25;5009371;28;20644;-68
2023/03/15 04:42:25;;;;;;;6.53;3.63;;;;;;;1.75;100.00;101117.97;5011920;28;20290;-69
2023/03/15 04:45:10;;;;;;;6.13;3.77;;;;;;;1.74;100.00;101121.28;5004692;28;20892;-69
2023/03/15 04:47:41;;;;;;;9.27;4.17;;;;;;;1.74;100.00;101130.53;5011021;28;20270;-69
2023/03/15 04:50:26;;;;;;;7.23;3.60;;;;;;;1.77;100.00;101148.38;5009326;28;20241;-69
2023/03/15 04:52:58;;;;;;;8.80;4.27;;;;;;;1.79;100.00;101145.16;5012089;28;20313;-69
2023/03/15 04:55:42;;;;;;;7.93;4.03;;;;;;;1.78;100.00;101145.06;5009455;28;20580;-70
2023/03/15 04:58:20;;;;;;;6.90;4.37;;;;;;;1.79;100.00;101140.09;5015657;28;20203;-69
2023/03/15 05:01:01;;;;;;;7.90;4.17;;;;;;;1.78;100.00;101142.53;5007169;28;20218;-69
2023/03/15 05:03:47;;;;;;;5.40;4.00;;;;;;;1.78;100.00;101155.16;5008769;28;20207;-69
2023/03/15 05:06:41;;;;;;;6.87;4.30;;;;;;;1.79;100.00;101152.72;5012194;28;20202;-69
2023/03/15 05:09:36;;;;;;;11.23;4.57;;;;;;;1.75;100.00;101150.78;5018390;28;20285;-68
2023/03/15 05:12:23;;;;;;;9.57;4.70;;;;;;;1.67;100.00;101163.75;5014988;28;20231;-68
2023/03/15 05:15:13;;;;;;;8.27;4.83;;;;;;;1.60;100.00;101161.66;5013214;28;20202;-68
2023/03/15 05:18:02;;;;;;;10.80;5.07;;;;;;;1.55;100.00;101168.06;5016176;28;20198;-69
2023/03/15 05:20:40;;;;;;;11.23;6.13;;;;;;;1.53;100.00;101173.03;5013567;28;20253;-69
2023/03/15 05:23:29;;;;;;;11.00;5.60;;;;;;;1.53;100.00;101173.03;5012734;28;20681;-69
2023/03/15 05:26:00;;;;;;;11.43;6.07;;;;;;;1.54;100.00;101179.81;5010608;28;20664;-68
2023/03/15 05:28:29;;;;;;;9.43;5.47;;;;;;;1.56;100.00;101188.34;5017410;28;20196;-68
2023/03/15 05:31:35;;;;;;;8.97;5.70;;;;;;;1.54;100.00;101191.53;5028581;28;20316;-68
2023/03/15 05:34:06;;;;;;;11.63;5.90;;;;;;;1.54;100.00;101189.91;5013537;28;20249;-68
2023/03/15 05:36:45;;;;;;;13.10;6.40;;;;;;;1.55;100.00;101181.56;5012059;28;20199;-68
2023/03/15 05:39:21;;;;;;;14.27;6.50;;;;;;;1.55;100.00;101194.16;5016424;28;20712;-68
2023/03/15 05:42:07;;;;;;;12.03;6.63;;;;;;;1.54;100.00;101200.00;5010674;28;20227;-68
2023/03/15 05:44:48;;;;;;;15.87;6.90;;;;;;;1.53;100.00;101208.34;5014193;28;20194;-68
2023/03/15 05:47:36;;;;;;;14.73;7.03;;;;;;;1.56;100.00;101225.31;5011879;28;20199;-68
2023/03/15 05:50:09;;;;;;;12.47;6.73;;;;;;;1.57;100.00;101227.94;5010256;28;20282;-69
2023/03/15 05:52:53;;;;;;;12.97;6.27;;;;;;;1.58;100.00;101228.78;5014241;28;20201;-68
2023/03/15 05:55:41;;;;;;;11.83;6.80;;;;;;;1.62;100.00;101235.78;5013489;28;20694;-68
2023/03/15 05:58:13;;;;;;;10.63;5.70;;;;;;;1.63;100.00;101243.44;5010027;28;20234;-68
2023/03/15 06:00:57;;;;;;;16.37;6.20;;;;;;;1.65;100.00;101244.41;5013181;28;20261;-68
2023/03/15 06:03:42;;;;;;;13.30;6.53;;;;;;;1.63;100.00;101247.59;5015894;28;20217;-68
2023/03/15 06:06:16;;;;;;;15.03;6.60;;;;;;;1.61;100.00;101257.59;5011952;28;20569;-68
2023/03/15 06:08:43;;;;;;;13.80;6.23;;;;;;;1.63;100.00;101257.69;4997935;28;20763;-68
2023/03/15 06:11:08;;;;;;;11.23;6.40;;;;;;;1.65;100.00;101258.69;5010039;28;20234;-68
2023/03/15 06:13:34;;;;;;;11.83;7.13;;;;;;;1.64;100.00;101254.38;5012216;28;20183;-68
2023/03/15 06:16:04;;;;;;;11.30;6.40;;;;;;;1.67;100.00;101257.13;5009574;28;20617;-68
2023/03/15 06:18:31;;;;;;;13.93;7.03;;;;;;;1.73;100.00;101260.00;5011440;28;20819;-68
2023/03/15 06:20:57;;;;;;;14.60;6.27;;;;;;;1.76;100.00;101267.75;5013240;28;20297;-68
2023/03/15 06:23:22;;;;;;;10.70;6.33;;;;;;;1.71;100.00;101266.63;5012860;28;20813;-68
2023/03/15 06:25:48;;;;;;;14.33;6.93;;;;;;;1.76;100.00;101268.66;5015138;28;20565;-68
2023/03/15 06:28:15;;;;;;;15.30;6.57;;;;;;;1.74;100.00;101272.72;5013187;28;20250;-69
2023/03/15 06:30:47;;;;;;;15.93;6.40;;;;;;;1.81;100.00;101279.88;5011384;28;20679;-69
2023/03/15 06:33:13;;;;;;;8.93;5.67;;;;;;;1.98;100.00;101289.31;5008013;28;20187;-70
2023/03/15 06:35:38;;;;;;;10.63;5.33;;;;;;;2.00;100.00;101302.94;5016121;28;20236;-70
2023/03/15 06:38:04;;;;;;;11.53;5.33;;;;;;;2.03;100.00;101302.25;5008930;28;20364;-70
2023/03/15 06:40:30;;;;;;;10.17;4.70;;;;;;;2.05;100.00;101306.59;5015666;28;20215;-69
2023/03/15 06:42:56;;;;;;;10.87;5.20;;;;;;;2.08;100.00;101310.97;5010278;28;20206;-69
2023/03/15 06:45:21;;;;;;;13.57;5.13;;;;;;;2.17;100.00;101314.03;5014769;28;20233;-68
2023/03/15 06:47:48;;;;;;;8.70;5.10;;;;;;;2.14;100.00;101317.25;5011426;28;20203;-69
2023/03/15 06:50:15;;;;;;;12.47;5.30;;;;;;;2.12;100.00;101320.47;4995121;28;20683;-70
2023/03/15 06:52:40;;;;;;;8.67;5.47;;;;;;;2.21;100.00;101323.56;5009309;28;20320;-69
2023/03/15 06:55:06;;;;;;;9.77;5.70;;;;;;;2.22;100.00;101327.81;5014065;28;20191;-68
2023/03/15 06:57:32;;;;;;;11.77;5.67;;;;;;;2.25;100.00;101333.91;5011396;28;20209;-68
2023/03/15 06:59:57;;;;;;;10.33;5.73;;;;;;;2.33;100.00;101335.25;5013117;28;20780;-69
2023/03/15 07:02:23;;;;;;;10.93;5.67;;;;;;;2.30;100.00;101339.25;5012441;28;20199;-70
2023/03/15 07:04:48;;;;;;;10.03;5.77;;;;;;;2.37;100.00;101344.75;5014497;28;20233;-69
2023/03/15 07:07:14;;;;;;;14.87;5.53;;;;;;;2.28;100.00;101348.38;5010603;28;20730;-69
2023/03/15 07:09:40;;;;;;;10.10;5.47;;;;;;;2.35;100.00;101347.97;5014495;28;20277;-69
2023/03/15 07:12:08;;;;;;;8.90;5.27;;;;;;;2.47;100.00;101357.16;5011125;28;20318;-70
2023/03/15 07:14:33;;;;;;;5.93;4.50;;;;;;;2.57;100.00;101358.59;5012533;28;20285;-69
2023/03/15 07:16:59;;;;;;;9.27;5.23;;;;;;;2.68;100.00;101365.13;5013357;28;20656;-70
2023/03/15 07:19:25;;;;;;;8.70;5.00;;;;;;;2.93;100.00;101358.16;5011211;28;20215;-69
2023/03/15 07:21:50;;;;;;;8.03;4.40;;;;;;;3.11;100.00;101372.75;5010769;28;20297;-70
2023/03/15 07:24:16;;;;;;;6.03;4.30;;;;;;;2.95;100.00;101369.25;5012026;28;20198;-70
2023/03/15 07:26:42;;;;;;;9.50;4.67;;;;;;;2.91;100.00;101359.75;5015146;28;20627;-71
2023/03/15 07:29:07;;;;;;;6.60;4.57;;;;;;;3.01;100.00;101364.53;5009681;28;20269;-69
2023/03/15 07:31:32;;;;;;;8.67;4.23;;;;;;;3.08;100.00;101369.19;5015450;28;20211;-70
2023/03/15 07:33:58;;;;;;;7.07;4.63;;;;;;;3.31;100.00;101371.34;5009945;28;20226;-70
2023/03/15 07:36:23;;;;;;;7.10;4.70;;;;;;;3.51;100.00;101371.69;5012360;28;20571;-69
2023/03/15 07:38:49;;;;;;;7.77;4.27;;;;;;;3.58;100.00;101375.44;5004616;28;20241;-70
2023/03/15 07:41:15;;;;;;;7.50;3.57;;;;;;;3.89;100.00;101377.19;5013959;28;20218;-69
2023/03/15 07:43:51;;;;;;;10.63;4.07;;;;;;;4.40;100.00;101379.94;5007738;28;20648;-69
2023/03/15 07:46:17;;;;;;;8.50;3.90;;;;;;;4.81;100.00;101382.06;5014216;28;20253;-70
2023/03/15 07:48:42;;;;;;;6.77;3.60;;;;;;;4.73;100.00;101388.41;5012077;28;20230;-69
2023/03/15 07:51:07;;;;;;;7.27;3.40;;;;;;;4.42;100.00;101380.88;5012881;28;20211;-70
2023/03/15 07:53:33;;;;;;;5.17;3.40;;;;;;;4.39;100.00;101400.13;5012091;28;20671;-70
2023/03/15 07:56:00;;;;;;;5.37;3.60;;;;;;;4.23;100.00;101428.88;5013720;28;20270;-69
2023/03/15 07:58:25;;;;;;;5.83;3.27;;;;;;;3.87;100.00;101452.19;5010797;28;20191;-70
2023/03/15 08:00:54;;;;;;;4.90;3.30;;;;;;;3.72;100.00;101446.28;5013902;28;20600;-70
2023/03/15 08:03:19;;;;;;;7.57;3.37;;;;;;;3.59;100.00;101459.03;4992094;28;20197;-70
2023/03/15 08:05:45;;;;;;;6.93;3.47;;;;;;;3.43;100.00;101463.13;5015233;28;20764;-70
2023/03/15 08:08:10;;;;;;;9.03;3.60;;;;;;;3.34;100.00;101467.66;5010386;28;20936;-70
2023/03/15 08:10:36;;;;;;;9.77;3.80;;;;;;;3.20;100.00;101471.94;5015050;28;20575;-70
2023/03/15 08:13:01;;;;;;;6.77;3.67;;;;;;;3.04;100.00;101459.16;5012740;28;20290;-70
2023/03/15 08:15:26;;;;;;;6.17;3.50;;;;;;;2.99;100.00;101455.50;5010328;28;20194;-69
2023/03/15 08:17:52;;;;;;;4.87;3.00;;;;;;;3.05;100.00;101449.94;5012168;28;20194;-70
2023/03/15 08:20:18;;;;;;;6.40;3.57;;;;;;;3.09;100.00;101449.34;5012268;28;20711;-70
2023/03/15 08:22:44;;;;;;;7.10;4.13;;;;;;;3.21;100.00;101450.03;5015536;28;20201;-69
2023/03/15 08:25:12;;;;;;;5.80;3.47;;;;;;;3.23;100.00;101456.94;5008946;28;20234;-70
2023/03/15 08:27:38;;;;;;;7.80;3.20;;;;;;;3.32;100.00;101457.44;5015088;28;20191;-70
2023/03/15 08:30:04;;;;;;;9.10;3.47;;;;;;;3.39;100.00;101458.69;5008268;28;20652;-70
2023/03/15 08:32:31;;;;;;;5.17;4.00;;;;;;;4.24;100.00;101453.41;5015924;28;20203;-71
2023/03/15 08:34:56;;;;;;;6.33;3.20;;;;;;;4.44;100.00;101447.75;5013204;28;20198;-70
2023/03/15 08:37:22;;;;;;;4.10;2.60;;;;;;;4.30;100.00;101457.94;5018512;28;20225;-70
2023/03/15 08:39:48;;;;;;;5.60;3.20;;;;;;;4.61;100.00;101462.19;5012652;28;20213;-70
2023/03/15 08:42:14;;;;;;;5.50;2.63;;;;;;;4.49;100.00;101466.63;5016229;28;20214;-71
2023/03/15 08:44:39;;;;;;;4.97;2.80;;;;;;;4.56;100.00;101472.88;5015244;28;20552;-70
2023/03/15 08:47:05;;;;;;;4.77;2.37;;;;;;;4.66;100.00;101483.59;5016567;28;20253;-70
2023/03/15 08:49:31;;;;;;;3.97;2.10;;;;;;;4.70;100.00;101487.16;5013590;28;20708;-70
2023/03/15 08:51:56;;;;;;;2.83;1.87;;;;;;;4.93;100.00;101486.72;5015134;28;20222;-70
2023/03/15 08:54:22;;;;;;;2.67;1.47;;;;;;;5.09;100.00;101486.69;4995276;28;20230;-70
2023/03/15 08:56:47;;;;;;;2.73;1.37;;;;;;;5.67;100.00;101493.91;5012104;28;20223;-70
2023/03/15 08:59:14;;;;;;;5.03;1.87;;;;;;;5.88;100.00;101500.91;5013057;28;20285;-71
2023/03/15 09:01:39;;;;;;;6.50;2.07;;;;;;;6.29;100.00;101502.88;5014469;28;20336;-70
2023/03/15 09:04:05;;;;;;;2.63;1.70;;;;;;;6.86;100.00;101495.38;5014121;28;20298;-70
2023/03/15 09:06:30;;;;;;;8.07;2.17;;;;;;;7.05;100.00;101495.38;5017303;28;20199;-71
2023/03/15 09:08:56;;;;;;;6.10;2.10;;;;;;;7.49;100.00;101482.84;5005515;28;20206;-67
2023/03/15 09:11:21;;;;;;;5.40;1.90;;;;;;;7.14;100.00;101483.03;5002708;28;20305;-69
2023/03/15 09:13:47;;;;;;;3.97;1.87;;;;;;;7.56;100.00;101465.31;5009610;28;20199;-69
2023/03/15 09:16:13;;;;;;;3.03;1.60;;;;;;;7.89;100.00;101417.38;5009751;28;20278;-69
2023/03/15 09:18:40;;;;;;;3.80;1.50;;;;;;;7.42;100.00;101406.97;5010382;28;20209;-70
2023/03/15 09:21:06;;;;;;;3.70;1.60;;;;;;;8.07;100.00;101367.09;5001352;28;20881;-71
2023/03/15 09:23:31;;;;;;;2.37;1.30;;;;;;;9.99;100.00;101253.50;5005379;28;20196;-70
2023/03/15 09:25:57;;;;;;;4.03;1.73;;;;;;;13.81;97.17;100748.50;5009280;28;20214;-70
2023/03/15 09:28:24;;;;;;;1.77;1.38;;;;;;;16.34;63.43;100379.78;5008848;28;20657;-70
2023/03/15 09:30:50;;;;;;;5.05;1.30;;;;;;;17.82;51.75;100201.50;5010642;28;20218;-69
2023/03/15 09:33:16;;;;;;;2.60;1.40;;;;;;;18.18;45.79;100031.38;5009100;28;20207;-69
2023/03/15 09:35:41;;;;;;;3.22;1.30;;;;;;;17.04;47.03;100109.81;5009056;28;20687;-70
2023/03/15 09:38:07;;;;;;;1.80;1.00;;;;;;;18.82;42.88;99977.00;5008432;28;20563;-70
2023/03/15 09:40:38;;;;;;;1.52;1.17;;;;;;;19.33;42.23;99963.41;5000126;28;20692;-71
2023/03/15 09:43:38;;;;;;;2.47;1.20;;;;;;;19.34;42.91;100255.09;5002956;28;20202;-69
2023/03/15 09:46:28;;;;;;;2.50;1.40;;;;;;;16.54;50.49;100507.09;5005303;28;20245;-71
2023/03/15 09:49:07;;;;;;;4.50;1.60;;;;;;;12.21;72.91;100707.81;5011264;28;20198;-68
2023/03/15 09:51:47;;;;;;;3.10;1.40;;;;;;;10.37;100.00;100976.47;5010877;28;20586;-67
2023/03/15 09:54:19;;;;;;;8.00;1.40;;;;;;;8.92;100.00;101142.09;4999930;28;20313;-67
2023/03/15 09:56:55;;;;;;;4.57;1.17;;;;;;;8.25;100.00;101281.94;5004184;28;20361;-73
2023/03/15 09:59:28;;;;;;;4.07;1.50;;;;;;;8.52;100.00;101350.97;5005044;28;20228;-70
2023/03/15 10:01:55;;;;;;;4.53;1.47;;;;;;;12.51;100.00;101170.50;4988072;28;20215;-70
2023/03/15 10:04:39;;;;;;;2.07;1.40;;;;;;;16.78;58.44;100734.44;5008864;28;20532;-70
2023/03/15 10:07:09;;;;;;;2.70;1.10;;;;;;;19.81;43.42;100437.44;5007968;28;20206;-69
2023/03/15 10:09:34;;;;;;;2.30;0.90;;;;;;;20.68;40.28;100791.72;5014529;28;20225;-70
2023/03/15 10:12:21;;;;;;;2.58;1.13;;;;;;;21.37;38.92;101125.41;5014796;28;20226;-69
2023/03/15 10:15:23;;;;;;;2.15;1.00;;;;;;;22.58;36.02;101174.03;5014345;28;20202;-69
2023/03/15 10:17:55;;;;;;;3.60;1.13;;;;;;;23.85;34.00;101276.13;5009076;28;20284;-69
2023/03/15 10:20:24;;;;;;;3.13;1.30;;;;;;;23.57;33.32;101294.31;5012211;28;20219;-67
2023/03/15 10:23:08;;;;;;;3.55;1.20;;;;;;;23.70;32.54;101305.28;5008797;28;20590;-67
2023/03/15 10:25:36;;;;;;;4.03;1.30;;;;;;;23.85;32.43;101313.59;5010974;28;20298;-67
2023/03/15 10:28:20;;;;;;;2.35;1.23;;;;;;;24.44;30.68;101314.56;5005109;28;20206;-69
2023/03/15 10:30:48;;;;;;;5.05;1.60;;;;;;;25.83;30.37;101325.69;5010714;28;20219;-69
2023/03/15 10:33:15;;;;;;;3.00;1.33;;;;;;;24.30;31.53;101345.50;5013603;28;20286;-70
2023/03/15 10:35:43;;;;;;;3.00;1.38;;;;;;;22.18;33.03;101356.75;5013139;28;20190;-70
2023/03/15 10:38:19;;;;;;;3.35;1.23;;;;;;;24.93;30.62;101323.53;5013770;28;20199;-70
2023/03/15 10:40:50;;;;;;;5.05;1.50;;;;;;;20.38;33.94;101356.13;5010603;28;20612;-70
2023/03/15 10:43:23;;;;;;;4.63;1.63;;;;;;;15.56;42.43;101447.50;5011206;28;20207;-70
2023/03/15 10:46:00;;;;;;;5.60;1.50;;;;;;;13.07;53.51;101494.50;5011235;28;20202;-70
2023/03/15 10:48:38;;;;;;;3.17;1.10;;;;;;;11.37;74.95;101545.16;5014193;28;20194;-69
2023/03/15 10:51:18;;;;;;;2.87;1.20;;;;;;;10.91;90.07;101572.88;5008928;28;20210;-69
2023/03/15 10:54:06;;;;;;;3.90;1.50;;;;;;;10.03;99.05;101603.25;5014715;28;20281;-69
2023/03/15 10:56:41;;;;;;;3.47;1.30;;;;;;;9.70;100.00;101620.91;5012081;28;20217;-69
2023/03/15 10:59:15;;;;;;;6.17;1.40;;;;;;;9.27;100.00;101644.84;5015976;28;20207;-68
2023/03/15 11:01:40;;;;;;;4.03;1.20;;;;;;;16.02;62.31;101469.44;5012775;28;20274;-68
2023/03/15 11:04:20;;;;;;;4.90;1.37;;;;;;;22.02;38.46;101321.38;5010385;28;20715;-69
2023/03/15 11:06:57;;;;;;;4.57;1.37;;;;;;;21.85;37.37;101343.47;5010522;28;20446;-70
2023/03/15 11:09:25;;;;;;;3.03;1.27;;;;;;;25.17;30.53;101325.34;5010032;28;20186;-69
2023/03/15 11:12:08;;;;;;;2.88;1.42;;;;;;;21.09;34.20;101384.72;5013216;28;20215;-69
2023/03/15 11:14:47;;;;;;;3.30;1.10;;;;;;;14.70;42.71;101457.72;5101487;27;20563;-69
2023/03/15 11:17:20;;;;;;;3.00;1.40;;;;;;;16.11;45.80;101487.59;5094485;28;20188;-68
2023/03/15 11:19:54;;;;;;;3.33;1.10;;;;;;;19.61;38.18;101405.44;5078602;28;20295;-68
2023/03/15 11:22:20;;;;;;;3.30;1.10;;;;;;;21.73;33.73;101361.94;5114619;28;20215;-69
2023/03/15 11:24:46;;;;;;;4.87;1.40;;;;;;;19.83;34.73;101379.28;5120470;28;20187;-68
2023/03/15 11:27:17;;;;;;;4.80;1.13;;;;;;;18.09;39.24;101442.50;5115756;28;21230;-68
2023/03/15 11:29:48;;;;;;;3.97;1.03;;;;;;;18.61;35.91;101404.34;5099958;28;20556;-69
2023/03/15 11:32:23;;;;;;;4.07;1.20;;;;;;;12.14;49.43;101501.88;5118347;28;20204;-69
2023/03/15 11:35:12;;;;;;;4.63;1.40;;;;;;;16.14;44.35;101477.25;5111500;28;20191;-68
2023/03/15 11:37:49;;;;;;;3.80;1.20;;;;;;;16.98;39.10;101424.28;5115996;28;20200;-68
2023/03/15 11:40:21;;;;;;;7.95;1.67;;;;;;;24.30;29.77;101341.13;5109768;28;20475;-69